Aviation Digital Data Service (ADDS)

Output produced by METARs form (0744 UTC 24 May 2018)
found at http://www.aviationweather.gov/adds/metars/
 
TAF SUCA 240510Z 2406/2506 30005KT 3000 BR NSC TX19/2418Z TN02/2410Z 
     PROB40 
     TEMPO 2406/2411 0800 BCFG
       
TAF SUDU 232330Z 2400/2424 00000KT 4000 BR NSC TX19/2418Z TN02/2410Z 
     PROB40 
     TEMPO 2403/2411 0800 BCFG 
     BECMG 2412/2414 29008KT 9999 SCT020
       
TAF SUMU 240510Z 2406/2506 00000KT 3000 BR NSC TX18/2418Z TN05/2410Z 
     PROB40 
     TEMPO 2406/2411 0800 BCFG 
     BECMG 2412/2414 29008KT 9999 SCT020
       
TAF SUAA 240510Z 2406/2506 00000KT 3000 BR NSC TX18/2418Z TN05/2410Z 
     PROB40 
     TEMPO 2406/2411 0800 BCFG 
     BECMG 2412/2414 29008KT 9999 SCT020
       
TAF SULS 240510Z 2406/2506 00000KT 3000 BR NSC TX18/2418Z TN04/2410Z 
     PROB40 
     TEMPO 2406/2411 0800 BCFG 
     BECMG 2412/2414 29008KT 9999 SCT020
       
TAF SURV 232330Z 2400/2424 00000KT 4000 BR NSC TX19/2418Z TN02/2410Z 
     PROB40 
     TEMPO 2403/2411 0800 BCFG 
     BECMG 2412/2414 14005KT 9999 SCT020
       
TAF SUSO 240510Z 2406/2506 00000KT 3000 BR NSC TX20/2418Z TN02/2410Z 
     PROB40 
     TEMPO 2406/2411 0800 BCFG 
     BECMG 2412/2414 29005KT 9999 SCT020